Time;durP1;ratioP1;P1;durP2;ratioP2;P2;SDS_P1;SDS_P2;PMS_P1;PMS_P2;Temp;Humidity;BMP_temperature;BMP_pressure;BME280_temperature;BME280_humidity;BME280_pressure;Samples;Min_cycle;Max_cycle;Signal;HPM_P1;HPM_P2
2023/11/02 00:01:56;;;;;;;0.28;0.20;;;;;;;12.80;59.88;99085.69;5311603;26;20060;-96
2023/11/02 00:04:22;;;;;;;1.10;0.55;;;;;;;12.88;59.90;99075.69;5296408;26;20658;-96
2023/11/02 00:06:49;;;;;;;1.45;0.95;;;;;;;12.99;59.90;99074.25;5290304;26;20048;-96
2023/11/02 00:09:36;;;;;;;0.00;0.00;;;;;;;12.95;59.89;99076.19;5308178;26;20430;-95
2023/11/02 00:12:03;;;;;;;0.00;0.00;;;;;;;13.08;59.90;99077.25;5326422;26;20076;-96
2023/11/02 00:14:35;;;;;;;1.12;1.02;;;;;;;12.96;59.90;99072.66;5289843;26;20052;-95
2023/11/02 00:17:00;;;;;;;0.03;0.00;;;;;;;12.99;59.90;99059.44;5289261;26;20024;-96
2023/11/02 00:19:31;;;;;;;0.00;0.00;;;;;;;13.06;59.90;99060.81;5307290;26;22608;-96
2023/11/02 00:21:58;;;;;;;0.00;0.00;;;;;;;13.03;59.89;99044.47;5289800;26;20039;-96
2023/11/02 00:24:23;;;;;;;0.43;0.40;;;;;;;13.15;59.90;99051.62;5290335;26;20117;-96
2023/11/02 00:26:49;;;;;;;0.43;0.43;;;;;;;13.05;59.90;99048.69;5325945;26;20076;-96
2023/11/02 00:29:14;;;;;;;0.52;0.52;;;;;;;13.08;59.89;99038.06;5307177;26;20122;-96
2023/11/02 00:31:39;;;;;;;1.02;0.45;;;;;;;13.19;59.91;99043.56;5307469;26;20072;-96
2023/11/02 00:34:06;;;;;;;0.00;0.00;;;;;;;13.13;59.91;99038.66;5307745;26;20057;-96
2023/11/02 00:36:31;;;;;;;0.00;0.00;;;;;;;13.29;59.91;99036.09;5308287;26;20016;-95
2023/11/02 00:38:59;;;;;;;3.20;0.65;;;;;;;13.20;59.91;99032.19;5307480;26;25196;-96
2023/11/02 00:41:25;;;;;;;1.10;0.57;;;;;;;13.19;59.91;99033.13;5327058;26;20034;-96
2023/11/02 00:43:50;;;;;;;0.80;0.80;;;;;;;13.16;59.90;99028.03;5307919;26;20104;-96
2023/11/02 00:46:16;;;;;;;0.20;0.10;;;;;;;13.14;59.91;99031.66;5307628;26;20092;-95
2023/11/02 00:48:41;;;;;;;0.05;0.05;;;;;;;13.28;59.91;99021.34;5313513;26;20044;-95
2023/11/02 00:51:17;;;;;;;0.10;0.10;;;;;;;13.31;59.91;99018.56;5308741;26;20057;-95
2023/11/02 00:53:50;;;;;;;0.80;0.20;;;;;;;13.18;59.90;99015.75;5326068;26;20143;-95
2023/11/02 00:56:17;;;;;;;0.00;0.00;;;;;;;13.25;59.90;99008.44;5290312;26;20047;-95
2023/11/02 00:58:46;;;;;;;0.30;0.30;;;;;;;12.83;59.89;99016.78;5289705;26;20105;-95
2023/11/02 01:01:12;;;;;;;0.22;0.22;;;;;;;12.92;59.89;99005.81;5291102;26;20048;-96
2023/11/02 01:03:37;;;;;;;0.15;0.15;;;;;;;12.82;59.89;99017.69;5320770;26;20043;-95
2023/11/02 01:06:03;;;;;;;0.10;0.10;;;;;;;12.93;59.89;99019.72;5310589;26;20096;-96
2023/11/02 01:08:33;;;;;;;0.80;0.80;;;;;;;12.94;59.89;99014.44;5308082;26;20107;-96
2023/11/02 01:10:58;;;;;;;0.30;0.30;;;;;;;12.99;59.90;99015.00;5290487;26;20752;-96
2023/11/02 01:13:23;;;;;;;0.20;0.13;;;;;;;13.07;59.90;99005.00;5307799;26;20107;-96
2023/11/02 01:16:18;;;;;;;3.97;0.80;;;;;;;13.00;59.90;99002.78;5307809;26;20177;-96
2023/11/02 01:18:45;;;;;;;0.55;0.55;;;;;;;12.93;59.89;99017.13;5315348;26;20096;-96
2023/11/02 01:21:11;;;;;;;0.13;0.13;;;;;;;12.86;59.89;99017.44;5292672;26;20029;-94
2023/11/02 01:23:36;;;;;;;0.15;0.15;;;;;;;12.98;59.90;99013.31;5311349;26;20181;-96
2023/11/02 01:26:03;;;;;;;0.05;0.05;;;;;;;12.80;59.88;99022.16;5310903;26;20078;-96
2023/11/02 01:28:53;;;;;;;0.10;0.10;;;;;;;12.81;59.88;99016.84;5310061;26;20045;-96
2023/11/02 01:31:20;;;;;;;0.20;0.20;;;;;;;12.91;59.89;99014.59;5293264;26;20028;-96
2023/11/02 01:33:55;;;;;;;0.10;0.10;;;;;;;12.80;59.88;99009.94;5312093;26;20072;-96
2023/11/02 01:36:34;;;;;;;0.17;0.10;;;;;;;12.77;59.88;99007.47;5310251;26;20056;-96
2023/11/02 01:39:15;;;;;;;0.00;0.00;;;;;;;12.74;59.89;99012.88;5290736;26;20049;-93
2023/11/02 01:42:03;;;;;;;0.13;0.13;;;;;;;12.79;59.88;98989.97;5327697;26;20118;-96
2023/11/02 01:44:55;;;;;;;0.25;0.25;;;;;;;12.60;59.88;99016.22;5309649;26;20075;-96
2023/11/02 01:47:26;;;;;;;0.00;0.00;;;;;;;12.58;59.88;99005.00;5328138;26;20397;-93
2023/11/02 01:50:04;;;;;;;0.00;0.00;;;;;;;12.53;59.87;99011.38;5327586;26;20051;-95
2023/11/02 01:52:48;;;;;;;1.65;1.12;;;;;;;12.42;59.86;99016.31;5291946;26;20064;-95
2023/11/02 01:55:32;;;;;;;0.95;0.62;;;;;;;12.55;59.87;98992.12;5328592;26;20128;-96
2023/11/02 01:58:20;;;;;;;0.25;0.25;;;;;;;12.49;59.87;99002.00;5309516;26;20062;-96
2023/11/02 02:00:49;;;;;;;0.15;0.15;;;;;;;12.60;59.88;98976.22;5309357;26;20102;-96
2023/11/02 02:03:36;;;;;;;3.53;1.17;;;;;;;12.53;59.87;98991.31;5309113;26;20111;-95
2023/11/02 02:06:09;;;;;;;0.10;0.10;;;;;;;12.43;59.86;98990.13;5309265;26;20117;-95
2023/11/02 02:08:56;;;;;;;0.08;0.08;;;;;;;12.36;59.87;98980.09;5291660;26;20085;-95
2023/11/02 02:11:53;;;;;;;0.40;0.40;;;;;;;12.42;59.86;98985.81;5327777;26;20049;-95
2023/11/02 02:14:34;;;;;;;0.32;0.22;;;;;;;12.48;59.87;98975.06;5314341;26;20135;-96
2023/11/02 02:17:14;;;;;;;0.00;0.00;;;;;;;12.45;59.87;98977.84;5310665;26;20743;-96
2023/11/02 02:19:44;;;;;;;0.10;0.10;;;;;;;12.34;59.86;98976.72;5292505;26;20044;-96
2023/11/02 02:22:34;;;;;;;0.30;0.30;;;;;;;12.31;59.86;98979.50;5309469;26;20702;-96
2023/11/02 02:25:12;;;;;;;0.00;0.00;;;;;;;12.39;59.86;98979.94;5323032;26;20064;-95
2023/11/02 02:28:14;;;;;;;1.08;0.98;;;;;;;12.44;59.87;98977.91;5327278;26;20132;-96
2023/11/02 02:30:47;;;;;;;0.57;0.15;;;;;;;12.50;59.86;98995.87;5327736;26;20426;-96
2023/11/02 02:33:31;;;;;;;0.00;0.00;;;;;;;12.34;59.85;98982.78;5331341;26;20083;-95
2023/11/02 02:36:13;;;;;;;2.35;0.32;;;;;;;12.29;59.86;98982.16;5340982;26;20076;-96
2023/11/02 02:38:52;;;;;;;0.00;0.00;;;;;;;12.29;59.86;98979.53;5296866;26;20166;-96
2023/11/02 02:41:20;;;;;;;0.40;0.40;;;;;;;11.98;59.85;98981.09;5295041;26;20481;-95
2023/11/02 02:43:46;;;;;;;0.32;0.32;;;;;;;12.04;59.84;98979.09;5291998;26;20062;-96
2023/11/02 02:46:12;;;;;;;0.00;0.00;;;;;;;12.00;59.84;98965.37;5309391;26;20053;-95
2023/11/02 02:48:37;;;;;;;0.00;0.00;;;;;;;11.98;59.84;98970.66;5309082;26;20076;-96
2023/11/02 02:51:03;;;;;;;0.60;0.45;;;;;;;12.13;59.84;98974.28;5309016;26;20053;-95
2023/11/02 02:53:33;;;;;;;0.65;0.40;;;;;;;12.15;59.85;98967.22;5309433;26;20068;-96
2023/11/02 02:56:07;;;;;;;0.10;0.10;;;;;;;12.12;59.84;98980.41;5291065;26;20103;-95
2023/11/02 02:58:46;;;;;;;0.00;0.00;;;;;;;12.13;59.84;98969.06;5327070;26;20116;-94
2023/11/02 03:01:13;;;;;;;0.35;0.35;;;;;;;12.06;59.85;98967.66;5308837;26;21136;-93
2023/11/02 03:03:38;;;;;;;1.55;0.65;;;;;;;11.89;59.83;98962.47;5290796;26;20439;-95
2023/11/02 03:06:05;;;;;;;0.00;0.00;;;;;;;11.93;59.84;98964.00;5309107;26;20064;-94
2023/11/02 03:08:31;;;;;;;0.40;0.22;;;;;;;11.87;59.83;98961.69;5308840;26;20056;-93
2023/11/02 03:10:57;;;;;;;0.00;0.00;;;;;;;11.79;59.83;98956.00;5309051;26;20048;-92
2023/11/02 03:13:22;;;;;;;1.37;0.80;;;;;;;11.85;59.84;98946.12;5327464;26;20106;-93
2023/11/02 03:15:49;;;;;;;0.35;0.35;;;;;;;11.71;59.83;98955.50;5307927;26;33729;-93
2023/11/02 03:18:14;;;;;;;0.35;0.35;;;;;;;11.74;59.82;98950.16;5290225;26;20059;-93
2023/11/02 03:20:43;;;;;;;0.10;0.10;;;;;;;11.80;59.82;98950.72;5327012;26;20102;-96
2023/11/02 03:23:14;;;;;;;0.00;0.00;;;;;;;11.79;59.83;98956.00;5327624;26;20048;-95
2023/11/02 03:26:02;;;;;;;0.50;0.50;;;;;;;11.80;59.83;98961.12;5327486;26;20122;-95
2023/11/02 03:28:34;;;;;;;2.95;1.65;;;;;;;11.77;59.83;98958.66;5308975;26;20070;-95
2023/11/02 03:31:36;;;;;;;0.20;0.20;;;;;;;11.80;59.83;98953.31;5326979;26;20052;-95
2023/11/02 03:34:15;;;;;;;0.20;0.20;;;;;;;11.79;59.83;98954.25;5347089;26;20041;-94
2023/11/02 03:37:11;;;;;;;0.15;0.15;;;;;;;11.72;59.83;98945.00;5309043;26;20190;-94
2023/11/02 03:40:38;;;;;;;0.05;0.05;;;;;;;11.80;59.83;98947.25;5308413;26;20060;-95
2023/11/02 03:43:18;;;;;;;0.00;0.00;;;;;;;11.75;59.82;98954.44;5260156;27;20053;-95
2023/11/02 03:46:02;;;;;;;0.52;0.35;;;;;;;11.82;59.83;98937.59;5260717;27;20101;-94
2023/11/02 03:48:42;;;;;;;0.10;0.10;;;;;;;11.83;59.84;98937.56;5334666;26;20052;-95
2023/11/02 03:51:32;;;;;;;0.45;0.45;;;;;;;11.81;59.83;98938.53;5347284;26;20553;-94
2023/11/02 03:54:33;;;;;;;0.82;0.50;;;;;;;11.69;59.82;98947.78;5330272;26;20416;-95
2023/11/02 03:57:18;;;;;;;0.10;0.10;;;;;;;11.60;59.81;98943.88;5327376;26;20040;-95
2023/11/02 04:00:05;;;;;;;0.82;0.82;;;;;;;11.73;59.83;98938.88;5308825;26;20080;-94
2023/11/02 04:02:31;;;;;;;0.10;0.10;;;;;;;11.64;59.82;98927.16;5309474;26;20068;-94
2023/11/02 04:05:16;;;;;;;0.00;0.00;;;;;;;11.67;59.83;98919.19;5317714;26;20027;-94
2023/11/02 04:07:59;;;;;;;0.00;0.00;;;;;;;11.74;59.82;98914.50;5352273;26;20067;-95
2023/11/02 04:10:26;;;;;;;0.00;0.00;;;;;;;11.67;59.82;98905.31;5327124;26;20074;-94
2023/11/02 04:13:04;;;;;;;0.10;0.10;;;;;;;11.66;59.82;98907.06;5290306;26;20135;-95
2023/11/02 04:15:30;;;;;;;0.00;0.00;;;;;;;11.46;59.81;98916.78;5308932;26;20450;-93
2023/11/02 04:17:56;;;;;;;0.00;0.00;;;;;;;11.75;59.83;98913.56;5308755;26;20049;-95
2023/11/02 04:20:21;;;;;;;0.10;0.10;;;;;;;11.83;59.84;98898.44;5327417;26;20057;-95
2023/11/02 04:22:47;;;;;;;0.00;0.00;;;;;;;11.57;59.82;98910.09;5327098;26;20064;-94
2023/11/02 04:25:12;;;;;;;1.45;0.45;;;;;;;11.49;59.81;98903.59;5326895;26;20127;-95
2023/11/02 04:27:37;;;;;;;0.00;0.00;;;;;;;11.61;59.82;98898.63;5300325;27;31399;-95
2023/11/02 04:30:03;;;;;;;0.55;0.55;;;;;;;11.53;59.82;98905.13;5282034;27;28005;-95
2023/11/02 04:32:29;;;;;;;0.03;0.03;;;;;;;11.48;59.81;98907.12;5300722;27;20121;-95
2023/11/02 04:34:56;;;;;;;0.20;0.20;;;;;;;11.58;59.82;98897.91;5301403;27;20104;-94
2023/11/02 04:37:21;;;;;;;0.00;0.00;;;;;;;11.57;59.82;98904.06;5301290;27;20060;-94
2023/11/02 04:39:47;;;;;;;0.85;0.75;;;;;;;11.69;59.82;98895.63;5301233;27;20335;-95
2023/11/02 04:42:13;;;;;;;0.65;0.32;;;;;;;11.50;59.81;98900.91;5301377;27;20060;-94
2023/11/02 04:44:39;;;;;;;0.00;0.00;;;;;;;11.36;59.80;98899.00;5283495;27;20057;-94
2023/11/02 04:47:04;;;;;;;0.22;0.22;;;;;;;11.46;59.82;98902.00;5301268;27;20087;-93
2023/11/02 04:49:33;;;;;;;0.80;0.43;;;;;;;11.51;59.81;98892.16;5283027;27;20057;-94
2023/11/02 04:51:59;;;;;;;0.57;0.57;;;;;;;11.53;59.82;98890.34;5282839;27;20071;-92
2023/11/02 04:54:29;;;;;;;0.32;0.32;;;;;;;11.58;59.82;98883.13;5283337;27;20560;-94
2023/11/02 04:56:54;;;;;;;0.40;0.40;;;;;;;11.54;59.82;98891.19;5301459;27;20045;-94
2023/11/02 04:59:20;;;;;;;0.00;0.00;;;;;;;11.31;59.81;98892.31;5301276;27;20080;-94
2023/11/02 05:01:47;;;;;;;0.10;0.10;;;;;;;11.32;59.81;98897.44;5300424;27;20192;-94
2023/11/02 05:04:12;;;;;;;0.43;0.43;;;;;;;11.30;59.81;98896.66;5282890;27;20086;-94
2023/11/02 05:06:38;;;;;;;0.08;0.08;;;;;;;11.40;59.81;98886.66;5282774;27;20398;-95
2023/11/02 05:09:04;;;;;;;0.65;0.65;;;;;;;11.44;59.81;98884.75;5301195;27;20322;-94
2023/11/02 05:11:30;;;;;;;0.00;0.00;;;;;;;11.39;59.81;98882.38;5282997;27;20057;-94
2023/11/02 05:13:55;;;;;;;0.10;0.10;;;;;;;11.37;59.80;98876.41;5282842;27;20057;-94
2023/11/02 05:16:20;;;;;;;0.10;0.10;;;;;;;11.43;59.80;98883.06;5301317;27;20052;-95
2023/11/02 05:18:46;;;;;;;0.00;0.00;;;;;;;11.37;59.80;98881.59;5300769;27;23781;-94
2023/11/02 05:21:11;;;;;;;0.05;0.05;;;;;;;11.29;59.80;98884.56;5282584;27;20426;-94
2023/11/02 05:23:37;;;;;;;0.70;0.65;;;;;;;11.16;59.80;98891.31;5281959;27;26209;-94
2023/11/02 05:26:04;;;;;;;0.00;0.00;;;;;;;11.15;59.79;98888.78;5282806;27;20381;-95
2023/11/02 05:28:31;;;;;;;2.47;0.43;;;;;;;11.17;59.80;98882.56;5321258;26;20464;-95
2023/11/02 05:30:56;;;;;;;0.00;0.00;;;;;;;11.05;59.78;98873.56;5286795;27;20071;-94
2023/11/02 05:33:21;;;;;;;1.05;0.95;;;;;;;11.04;59.79;98871.88;5286183;27;20371;-95
2023/11/02 05:35:47;;;;;;;0.00;0.00;;;;;;;11.11;59.79;98871.56;5315212;27;20019;-95
2023/11/02 05:38:12;;;;;;;0.10;0.00;;;;;;;11.02;59.79;98870.28;5293583;27;20068;-94
2023/11/02 05:40:38;;;;;;;0.00;0.00;;;;;;;11.15;59.79;98873.97;5304947;27;20060;-96
2023/11/02 05:43:03;;;;;;;0.47;0.45;;;;;;;11.07;59.79;98876.94;5286706;27;20299;-95
2023/11/02 05:45:28;;;;;;;0.00;0.00;;;;;;;11.00;59.79;98864.28;5287213;27;20100;-93
2023/11/02 05:47:54;;;;;;;0.00;0.00;;;;;;;11.20;59.80;98869.38;5305625;27;20057;-94
2023/11/02 05:50:19;;;;;;;0.28;0.28;;;;;;;11.08;59.79;98872.56;5285786;27;20318;-95
2023/11/02 05:52:45;;;;;;;0.00;0.00;;;;;;;11.08;59.79;98877.78;5303571;27;29984;-96
2023/11/02 05:55:10;;;;;;;0.08;0.08;;;;;;;11.06;59.78;98875.25;5286367;27;20044;-96
2023/11/02 05:57:35;;;;;;;0.10;0.10;;;;;;;10.98;59.78;98866.13;5286472;27;20194;-96
2023/11/02 06:00:01;;;;;;;0.30;0.30;;;;;;;11.07;59.79;98852.66;5285806;27;23594;-96
2023/11/02 06:02:32;;;;;;;0.08;0.08;;;;;;;10.93;59.79;98855.09;5285817;27;20061;-96
2023/11/02 06:04:57;;;;;;;0.20;0.20;;;;;;;11.04;59.79;98860.63;5306143;27;20100;-96
2023/11/02 06:07:22;;;;;;;0.22;0.22;;;;;;;10.99;59.79;98867.81;5287276;27;20373;-96
2023/11/02 06:09:48;;;;;;;0.17;0.17;;;;;;;11.00;59.79;98872.09;5286377;27;20144;-95
2023/11/02 06:12:13;;;;;;;0.65;0.65;;;;;;;11.06;59.78;98867.44;5305319;27;20098;-96
2023/11/02 06:14:39;;;;;;;0.20;0.20;;;;;;;11.14;59.79;98871.47;5287148;27;20052;-96
2023/11/02 06:17:05;;;;;;;0.00;0.00;;;;;;;11.25;59.80;98870.00;5305421;27;20065;-94
2023/11/02 06:19:31;;;;;;;1.55;0.28;;;;;;;11.17;59.79;98866.09;5305649;27;20057;-95
2023/11/02 06:21:57;;;;;;;0.05;0.05;;;;;;;11.28;59.80;98872.44;5287719;27;20052;-95
2023/11/02 06:24:22;;;;;;;0.20;0.20;;;;;;;11.33;59.80;98867.00;5287664;27;20032;-94
2023/11/02 06:26:48;;;;;;;3.30;0.45;;;;;;;11.33;59.80;98870.47;5287737;27;20052;-95
2023/11/02 06:29:13;;;;;;;0.10;0.10;;;;;;;11.41;59.81;98867.50;5287061;27;20085;-95
2023/11/02 06:31:39;;;;;;;0.00;0.00;;;;;;;11.56;59.82;98858.91;5287156;27;20049;-95
2023/11/02 06:34:04;;;;;;;1.20;0.90;;;;;;;11.52;59.81;98857.37;5286991;27;20056;-96
2023/11/02 06:36:30;;;;;;;0.00;0.00;;;;;;;11.59;59.81;98865.72;5287210;27;20065;-96
2023/11/02 06:38:56;;;;;;;0.20;0.20;;;;;;;11.61;59.82;98869.97;5286579;27;20086;-95
2023/11/02 06:41:22;;;;;;;0.62;0.47;;;;;;;11.79;59.83;98862.97;5287240;27;20049;-94
2023/11/02 06:43:49;;;;;;;0.55;0.35;;;;;;;11.89;59.83;98860.75;5287838;27;20066;-95
2023/11/02 06:46:14;;;;;;;0.00;0.00;;;;;;;11.86;59.83;98860.94;5287812;27;20053;-95
2023/11/02 06:48:40;;;;;;;1.10;1.08;;;;;;;12.03;59.84;98852.22;5287132;27;20421;-93
2023/11/02 06:51:05;;;;;;;0.37;0.37;;;;;;;12.05;59.84;98848.59;5286857;27;20092;-94
2023/11/02 06:53:31;;;;;;;0.10;0.10;;;;;;;12.11;59.84;98856.13;5286798;27;20057;-95
2023/11/02 06:55:56;;;;;;;0.25;0.25;;;;;;;12.20;59.85;98846.97;5286667;27;20069;-94
2023/11/02 06:58:21;;;;;;;1.67;0.62;;;;;;;12.27;59.85;98848.31;5286645;27;20461;-95
2023/11/02 07:00:47;;;;;;;0.30;0.30;;;;;;;12.28;59.86;98845.62;5286309;27;21988;-96
2023/11/02 07:03:12;;;;;;;0.00;0.00;;;;;;;12.31;59.86;98851.63;5288223;27;20100;-95
2023/11/02 07:05:38;;;;;;;0.00;0.00;;;;;;;12.20;59.84;98850.41;5297729;27;20053;-96
2023/11/02 07:08:04;;;;;;;0.15;0.15;;;;;;;12.34;59.85;98854.91;5294898;27;20080;-94
2023/11/02 07:10:31;;;;;;;1.65;1.55;;;;;;;12.35;59.86;98847.91;5291250;27;20017;-94
2023/11/02 07:12:57;;;;;;;0.17;0.17;;;;;;;12.57;59.87;98858.91;5289079;27;20049;-94
2023/11/02 07:15:23;;;;;;;0.45;0.45;;;;;;;12.63;59.87;98858.56;5286381;27;20080;-96
2023/11/02 07:17:49;;;;;;;0.03;0.03;;;;;;;12.68;59.88;98853.91;5286529;27;20061;-95
2023/11/02 07:20:15;;;;;;;0.28;0.28;;;;;;;12.64;59.87;98851.56;5304433;26;20078;-94
2023/11/02 07:22:40;;;;;;;7.72;1.20;;;;;;;12.79;59.88;98846.34;5286460;27;20413;-95
2023/11/02 07:25:07;;;;;;;0.37;0.37;;;;;;;12.77;59.88;98845.56;5286920;27;20057;-96
2023/11/02 07:27:32;;;;;;;0.65;0.65;;;;;;;12.77;59.88;98837.72;5282746;27;20061;-96
2023/11/02 07:29:59;;;;;;;0.50;0.50;;;;;;;12.77;59.88;98836.88;5300896;27;20080;-96
2023/11/02 07:32:28;;;;;;;0.10;0.10;;;;;;;12.94;59.89;98821.13;5283253;27;20053;-96
2023/11/02 07:34:54;;;;;;;0.10;0.10;;;;;;;12.92;59.89;98822.97;5282406;27;20025;-96
2023/11/02 07:37:20;;;;;;;0.82;0.82;;;;;;;13.07;59.90;98819.53;5301743;27;20077;-96
2023/11/02 07:39:46;;;;;;;4.70;0.98;;;;;;;12.98;59.90;98819.19;5283347;27;20167;-96
2023/11/02 07:42:11;;;;;;;4.55;1.52;;;;;;;13.03;59.91;98822.41;5301617;27;20040;-96
2023/11/02 07:44:36;;;;;;;0.10;0.10;;;;;;;13.13;59.91;98816.53;5300866;27;20152;-96
2023/11/02 07:47:02;;;;;;;0.13;0.13;;;;;;;13.29;59.91;98811.31;5283588;27;20123;-96
2023/11/02 07:49:28;;;;;;;0.00;0.00;;;;;;;13.38;59.92;98812.53;5301106;27;20085;-96
2023/11/02 07:51:53;;;;;;;0.95;0.93;;;;;;;13.37;59.92;98818.72;5283010;27;20067;-96
2023/11/02 07:54:19;;;;;;;1.55;0.93;;;;;;;13.43;59.92;98818.34;5301541;27;20119;-96
2023/11/02 07:56:44;;;;;;;0.00;0.00;;;;;;;13.40;59.91;98811.53;5301687;27;20064;-96
2023/11/02 07:59:11;;;;;;;1.67;1.05;;;;;;;13.42;59.92;98803.59;5283569;27;20116;-96
2023/11/02 08:01:37;;;;;;;0.88;0.50;;;;;;;13.61;59.93;98800.75;5302688;27;20325;-96
2023/11/02 08:04:03;;;;;;;1.08;0.82;;;;;;;13.75;59.93;98785.91;5302336;27;20065;-96
2023/11/02 08:06:29;;;;;;;0.70;0.60;;;;;;;13.77;59.94;98794.50;5301807;27;20036;-96
2023/11/02 08:08:54;;;;;;;4.28;0.75;;;;;;;13.83;59.94;98796.75;5302208;27;20062;-96
2023/11/02 08:11:19;;;;;;;1.52;0.90;;;;;;;14.00;59.95;98795.75;5284143;27;20075;-96
2023/11/02 08:13:46;;;;;;;1.00;0.80;;;;;;;13.98;59.95;98789.75;5301738;27;20527;-96
2023/11/02 08:16:12;;;;;;;0.85;0.85;;;;;;;14.08;59.95;98785.62;5302536;27;20026;-96
2023/11/02 08:18:37;;;;;;;0.00;0.00;;;;;;;14.22;59.96;98781.34;5284056;27;20053;-96
2023/11/02 08:21:07;;;;;;;0.45;0.45;;;;;;;14.23;59.96;98778.62;5284104;27;20106;-95
2023/11/02 08:23:32;;;;;;;;;;;;;;;14.33;59.96;98781.47;5302751;27;20061;-96
2023/11/02 08:25:58;;;;;;;0.10;0.10;;;;;;;14.36;59.97;98781.28;5301965;27;19991;-96
2023/11/02 08:28:23;;;;;;;1.15;0.50;;;;;;;14.46;59.97;98771.12;5321449;27;20415;-96
2023/11/02 08:30:49;;;;;;;0.00;0.00;;;;;;;14.39;59.97;98771.47;5287679;27;20342;-96
2023/11/02 08:33:15;;;;;;;0.52;0.45;;;;;;;14.48;59.98;98767.47;5309178;26;20072;-96
2023/11/02 08:35:40;;;;;;;0.50;0.50;;;;;;;14.36;59.97;98758.56;5300203;27;20087;-96
2023/11/02 08:38:06;;;;;;;0.05;0.05;;;;;;;14.49;59.98;98749.97;5288945;27;20060;-96
2023/11/02 08:40:31;;;;;;;0.00;0.00;;;;;;;14.40;59.96;98754.81;5287666;27;20057;-96
2023/11/02 08:42:57;;;;;;;0.35;0.35;;;;;;;14.27;59.96;98759.16;5289178;27;20102;-96
2023/11/02 08:45:22;;;;;;;0.28;0.28;;;;;;;14.41;59.98;98740.78;5287855;27;20064;-96
2023/11/02 08:47:48;;;;;;;0.15;0.15;;;;;;;14.47;59.97;98738.78;5289487;27;20389;-96
2023/11/02 08:50:13;;;;;;;0.08;0.08;;;;;;;14.58;59.98;98742.38;5288597;27;20108;-95
2023/11/02 08:52:39;;;;;;;0.10;0.10;;;;;;;14.70;59.98;98740.75;5288929;27;20065;-95
2023/11/02 08:55:05;;;;;;;1.48;1.45;;;;;;;14.64;59.99;98736.72;5307516;26;20069;-95
2023/11/02 08:57:30;;;;;;;2.80;0.77;;;;;;;14.70;59.98;98735.50;5307544;27;20073;-95
2023/11/02 08:59:59;;;;;;;1.58;1.30;;;;;;;14.61;59.98;98739.53;5306362;26;20060;-96
2023/11/02 09:02:25;;;;;;;1.55;1.45;;;;;;;14.80;60.00;98731.34;5306049;27;20064;-96
2023/11/02 09:04:51;;;;;;;0.82;0.62;;;;;;;14.76;59.99;98734.25;5287826;27;20475;-95
2023/11/02 09:07:16;;;;;;;0.30;0.30;;;;;;;14.80;60.00;98735.75;5289663;27;20057;-94
2023/11/02 09:09:42;;;;;;;0.22;0.22;;;;;;;14.87;60.00;98724.75;5292826;27;20056;-93
2023/11/02 09:12:07;;;;;;;2.10;1.45;;;;;;;14.93;60.00;98720.91;5290102;27;23683;-94
2023/11/02 09:14:32;;;;;;;0.43;0.43;;;;;;;15.01;60.00;98716.00;5304653;27;20326;-96
2023/11/02 09:16:58;;;;;;;0.30;0.30;;;;;;;15.16;60.00;98716.75;5287170;27;20116;-96
2023/11/02 09:19:23;;;;;;;1.17;1.12;;;;;;;15.23;60.01;98703.13;5287268;27;20075;-95
2023/11/02 09:21:49;;;;;;;0.43;0.43;;;;;;;15.28;60.02;98698.41;5287350;27;20091;-96
2023/11/02 09:24:14;;;;;;;0.62;0.62;;;;;;;15.24;60.01;98715.28;5287561;27;20064;-95
2023/11/02 09:26:41;;;;;;;0.37;0.32;;;;;;;15.13;60.01;98714.31;5289923;26;20068;-95
2023/11/02 09:29:08;;;;;;;0.00;0.00;;;;;;;15.48;60.03;98707.53;5311410;26;20068;-96
2023/11/02 09:31:34;;;;;;;0.68;0.68;;;;;;;15.45;60.02;98702.50;5294572;26;20074;-96
2023/11/02 09:34:00;;;;;;;1.55;0.32;;;;;;;15.69;60.03;98694.75;5311284;26;20065;-95
2023/11/02 09:36:26;;;;;;;1.10;1.05;;;;;;;15.58;60.04;98687.63;5314439;26;20035;-96
2023/11/02 09:38:52;;;;;;;0.45;0.45;;;;;;;15.63;60.04;98675.03;5312357;26;20053;-96
2023/11/02 09:41:18;;;;;;;0.50;0.40;;;;;;;15.89;60.05;98670.59;5313362;26;20027;-96
2023/11/02 09:43:44;;;;;;;0.00;0.00;;;;;;;15.86;60.04;98662.09;5314703;26;20064;-96
2023/11/02 09:46:09;;;;;;;0.43;0.43;;;;;;;15.94;60.06;98652.72;5311361;26;20137;-95
2023/11/02 09:48:35;;;;;;;0.65;0.65;;;;;;;16.13;60.06;98641.75;5309721;26;20061;-93
2023/11/02 09:51:00;;;;;;;0.20;0.20;;;;;;;16.13;60.06;98641.75;5328315;26;20079;-94
2023/11/02 09:53:26;;;;;;;0.05;0.05;;;;;;;16.24;60.06;98627.81;5309467;26;20082;-94
2023/11/02 09:55:52;;;;;;;0.00;0.00;;;;;;;16.29;60.07;98625.69;5308954;26;20059;-95
2023/11/02 09:58:17;;;;;;;1.48;0.95;;;;;;;16.42;60.08;98617.75;5309117;26;20071;-94
2023/11/02 10:00:43;;;;;;;0.05;0.05;;;;;;;16.45;60.08;98614.91;5310054;26;20064;-95
2023/11/02 10:03:08;;;;;;;4.43;0.47;;;;;;;16.50;60.09;98612.78;5296028;26;20630;-93
2023/11/02 10:05:34;;;;;;;0.00;0.00;;;;;;;16.47;60.09;98607.75;5321940;26;20060;-95
2023/11/02 10:07:59;;;;;;;0.00;0.00;;;;;;;16.62;60.08;98609.25;5310386;26;20371;-95
2023/11/02 10:10:31;;;;;;;0.03;0.03;;;;;;;16.85;60.11;98603.12;5309370;26;20611;-95
2023/11/02 10:12:57;;;;;;;0.03;0.03;;;;;;;16.93;60.11;98599.91;5292669;26;20702;-95
2023/11/02 10:15:22;;;;;;;4.28;2.65;;;;;;;17.01;60.12;98599.31;5310254;26;20102;-96
2023/11/02 10:17:49;;;;;;;0.22;0.22;;;;;;;17.02;60.12;98595.72;5310951;26;20096;-94
2023/11/02 10:20:17;;;;;;;0.20;0.20;;;;;;;17.16;60.13;98582.38;5310526;26;20721;-94
2023/11/02 10:22:43;;;;;;;6.80;1.17;;;;;;;17.30;60.13;98583.94;5293537;26;20810;-95
2023/11/02 10:25:13;;;;;;;0.22;0.22;;;;;;;17.53;60.13;98577.72;5293854;26;20455;-94
2023/11/02 10:27:41;;;;;;;0.45;0.45;;;;;;;17.58;60.14;98574.72;5293527;26;20060;-95
2023/11/02 10:30:07;;;;;;;0.22;0.22;;;;;;;17.68;60.14;98575.66;5293672;26;20119;-95
2023/11/02 10:32:32;;;;;;;0.25;0.25;;;;;;;17.83;60.15;98566.56;5293485;26;20755;-95
2023/11/02 10:34:58;;;;;;;0.50;0.30;;;;;;;17.81;60.15;98565.84;5312636;26;20064;-95
2023/11/02 10:37:31;;;;;;;0.30;0.30;;;;;;;18.02;60.16;98553.59;5313427;26;20060;-94
2023/11/02 10:39:56;;;;;;;0.00;0.00;;;;;;;18.10;60.17;98548.50;5313113;26;20036;-95
2023/11/02 10:42:24;;;;;;;0.10;0.10;;;;;;;18.02;60.17;98553.59;5312654;26;20336;-95
2023/11/02 10:44:49;;;;;;;1.10;0.57;;;;;;;18.23;60.18;98550.16;5296428;26;20111;-95
2023/11/02 10:47:15;;;;;;;0.52;0.52;;;;;;;18.26;60.18;98549.91;5314173;26;20066;-94
2023/11/02 10:49:40;;;;;;;0.00;0.00;;;;;;;18.47;60.19;98536.75;5313591;26;20095;-96
2023/11/02 10:52:11;;;;;;;0.10;0.10;;;;;;;18.41;60.19;98532.81;5314106;26;20128;-95
2023/11/02 10:54:41;;;;;;;0.20;0.13;;;;;;;18.67;60.20;98538.56;5297287;26;20021;-95
2023/11/02 10:57:17;;;;;;;0.35;0.30;;;;;;;18.61;60.19;98529.34;5296942;26;20080;-95
2023/11/02 10:59:45;;;;;;;1.12;0.85;;;;;;;18.73;60.20;98521.41;5295427;26;20096;-95
2023/11/02 11:02:13;;;;;;;0.47;0.47;;;;;;;18.74;60.21;98504.63;5314177;26;20207;-94
2023/11/02 11:04:42;;;;;;;1.17;0.95;;;;;;;18.95;60.22;98513.34;5295603;26;20116;-95
2023/11/02 11:07:09;;;;;;;0.00;0.00;;;;;;;18.91;60.21;98507.47;5294706;26;20024;-96
2023/11/02 11:09:35;;;;;;;0.13;0.13;;;;;;;18.95;60.22;98500.16;5296937;26;20080;-95
2023/11/02 11:12:02;;;;;;;0.22;0.22;;;;;;;19.16;60.23;98490.34;5294360;26;20078;-95
2023/11/02 11:14:28;;;;;;;0.22;0.22;;;;;;;19.10;60.22;98490.88;5313236;26;20035;-96
2023/11/02 11:16:56;;;;;;;0.43;0.17;;;;;;;19.28;60.23;98486.66;5313367;26;20720;-95
2023/11/02 11:19:21;;;;;;;1.77;0.75;;;;;;;19.31;60.24;98480.28;5332259;26;20131;-95
2023/11/02 11:21:47;;;;;;;1.17;0.82;;;;;;;19.38;60.23;98475.28;5312534;26;20098;-95
2023/11/02 11:24:16;;;;;;;0.00;0.00;;;;;;;19.49;60.24;98475.19;5312451;26;20059;-95
2023/11/02 11:26:50;;;;;;;0.13;0.13;;;;;;;19.52;60.24;98470.47;5295895;26;20139;-95
2023/11/02 11:29:39;;;;;;;0.73;0.73;;;;;;;19.60;60.25;98461.87;5313580;26;20715;-95
2023/11/02 11:32:29;;;;;;;4.10;1.85;;;;;;;19.82;60.26;98445.78;5323236;26;20037;-96
2023/11/02 11:35:03;;;;;;;0.20;0.20;;;;;;;19.84;60.26;98446.47;5326557;26;20087;-96
2023/11/02 11:40:20;;;;;;;0.00;0.00;;;;;;;20.11;60.28;98429.94;5316187;26;20056;-95
2023/11/02 11:42:52;;;;;;;0.10;0.10;;;;;;;20.21;60.28;98429.91;5329783;26;20114;-95
2023/11/02 11:45:46;;;;;;;0.00;0.00;;;;;;;20.22;60.28;98429.75;5329113;26;20059;-95
2023/11/02 11:48:12;;;;;;;0.90;0.85;;;;;;;20.19;60.28;98413.34;5328575;26;20093;-94